Time;durP1;ratioP1;P1;durP2;ratioP2;P2;SDS_P1;SDS_P2;PMS_P1;PMS_P2;Temp;Humidity;BMP_temperature;BMP_pressure;BME280_temperature;BME280_humidity;BME280_pressure;Samples;Min_cycle;Max_cycle;Signal;HPM_P1;HPM_P2
2021/12/04 00:00:58;;;;;;;3.67;1.52;;;7.70;30.60;;;;;;5059814;28;20161;-49
2021/12/04 00:03:26;;;;;;;1.45;1.00;;;7.60;30.60;;;;;;5060023;28;20177;-49
2021/12/04 00:05:56;;;;;;;1.65;0.93;;;7.70;30.80;;;;;;5077003;28;20278;-49
2021/12/04 00:08:27;;;;;;;1.40;0.55;;;7.60;30.70;;;;;;5076988;28;20187;-49
2021/12/04 00:10:55;;;;;;;2.55;1.48;;;7.60;30.80;;;;;;5059919;28;20620;-49
2021/12/04 00:13:23;;;;;;;1.10;0.50;;;7.60;30.70;;;;;;5076943;28;20291;-49
2021/12/04 00:15:50;;;;;;;1.20;0.73;;;7.60;30.90;;;;;;5076050;28;20157;-49
2021/12/04 00:18:18;;;;;;;1.42;0.80;;;7.60;30.90;;;;;;5076051;28;20175;-49
2021/12/04 00:20:45;;;;;;;1.83;0.90;;;7.60;31.50;;;;;;5076733;28;20667;-49
2021/12/04 00:23:13;;;;;;;1.45;0.88;;;7.50;31.20;;;;;;5059331;28;20177;-49
2021/12/04 00:25:40;;;;;;;1.77;1.35;;;7.50;31.30;;;;;;5075830;28;20653;-49
2021/12/04 00:28:08;;;;;;;3.30;2.40;;;7.40;31.50;;;;;;5071180;28;20231;-49
2021/12/04 00:30:36;;;;;;;2.53;1.60;;;7.40;31.60;;;;;;5056735;28;20158;-49
2021/12/04 00:33:10;;;;;;;4.10;2.78;;;7.30;31.80;;;;;;5056556;28;20159;-49
2021/12/04 00:35:48;;;;;;;2.28;1.13;;;7.30;32.00;;;;;;5055616;28;20256;-49
2021/12/04 00:51:34;;;;;;;7.28;2.65;;;7.20;32.30;;;;;;5055475;28;20150;-49
2021/12/04 00:54:01;;;;;;;2.75;1.25;;;7.20;32.20;;;;;;5038988;28;20220;-49
2021/12/04 00:56:29;;;;;;;2.10;0.90;;;7.20;32.20;;;;;;5055358;28;20177;-49
2021/12/04 00:58:56;;;;;;;2.30;1.17;;;7.30;32.40;;;;;;5055146;28;20173;-49
2021/12/04 01:01:24;;;;;;;2.05;1.40;;;7.20;32.20;;;;;;5055098;28;20188;-49
2021/12/04 01:03:51;;;;;;;1.98;1.27;;;7.30;32.50;;;;;;5055946;28;20177;-49
2021/12/04 01:06:18;;;;;;;2.60;1.33;;;7.20;32.30;;;;;;5055837;28;20264;-49
2021/12/04 01:08:45;;;;;;;1.35;0.75;;;7.20;32.30;;;;;;5055863;28;20165;-49
2021/12/04 01:11:13;;;;;;;1.50;1.00;;;7.20;32.20;;;;;;5054912;28;20169;-49
2021/12/04 01:13:40;;;;;;;1.40;0.88;;;7.30;32.30;;;;;;5054972;28;20529;-49
2021/12/04 01:16:10;;;;;;;2.65;1.17;;;7.30;32.40;;;;;;5054887;28;20564;-49
2021/12/04 01:18:39;;;;;;;2.50;1.17;;;7.30;32.30;;;;;;5023013;28;20483;-49
2021/12/04 01:21:06;;;;;;;3.42;1.60;;;7.30;32.20;;;;;;5054911;28;20169;-49
2021/12/04 01:23:34;;;;;;;2.10;1.88;;;7.30;32.30;;;;;;5054715;28;20161;-49
2021/12/04 01:26:01;;;;;;;2.28;1.42;;;7.30;32.60;;;;;;5055457;28;20196;-49
2021/12/04 01:28:28;;;;;;;2.78;1.98;;;7.30;32.40;;;;;;5054665;28;20172;-50
2021/12/04 01:30:56;;;;;;;2.72;1.67;;;7.30;32.50;;;;;;5055573;28;20165;-49
2021/12/04 01:33:23;;;;;;;9.80;2.88;;;7.30;32.60;;;;;;5054549;28;20173;-49
2021/12/04 01:35:50;;;;;;;3.08;2.00;;;7.30;32.70;;;;;;5055371;28;20165;-49
2021/12/04 01:38:17;;;;;;;2.15;1.13;;;7.30;32.70;;;;;;5037978;28;20177;-49
2021/12/04 01:40:45;;;;;;;2.95;1.40;;;7.30;32.80;;;;;;5055090;28;20209;-49
2021/12/04 01:43:13;;;;;;;3.38;2.60;;;7.20;32.60;;;;;;5055163;28;20193;-49
2021/12/04 01:45:40;;;;;;;5.13;2.25;;;7.20;32.60;;;;;;5055105;28;20162;-49
2021/12/04 01:48:12;;;;;;;1.50;0.80;;;7.20;32.60;;;;;;5055167;28;20165;-49
2021/12/04 01:50:40;;;;;;;4.18;2.58;;;7.20;32.70;;;;;;5055108;28;20311;-49
2021/12/04 01:53:07;;;;;;;1.85;1.13;;;7.20;33.20;;;;;;5054919;28;20173;-49
2021/12/04 01:55:36;;;;;;;1.75;1.10;;;7.20;32.70;;;;;;5054175;28;20168;-49
2021/12/04 01:58:05;;;;;;;2.67;0.90;;;7.20;32.60;;;;;;5053952;28;20604;-49
2021/12/04 02:00:36;;;;;;;1.75;1.20;;;7.20;32.50;;;;;;5037991;28;20162;-49
2021/12/04 02:03:04;;;;;;;2.85;2.05;;;7.20;32.60;;;;;;5054916;28;20252;-49
2021/12/04 02:05:32;;;;;;;2.33;1.38;;;7.30;32.70;;;;;;5054905;28;20678;-49
2021/12/04 02:07:59;;;;;;;1.50;1.10;;;7.20;32.60;;;;;;5037564;28;20180;-49
2021/12/04 02:10:27;;;;;;;1.27;0.60;;;7.30;32.60;;;;;;5054823;28;20157;-49
2021/12/04 02:12:54;;;;;;;2.20;0.95;;;7.30;32.50;;;;;;5054786;28;20180;-49
2021/12/04 02:15:22;;;;;;;1.63;0.95;;;7.30;32.60;;;;;;5037523;28;20157;-49
2021/12/04 02:17:50;;;;;;;2.00;0.98;;;7.30;32.60;;;;;;5054823;28;20171;-49
2021/12/04 02:20:27;;;;;;;1.73;1.58;;;7.30;32.50;;;;;;5037170;28;20170;-49
2021/12/04 02:22:56;;;;;;;1.70;1.50;;;7.20;32.60;;;;;;5054134;28;20600;-49
2021/12/04 02:25:24;;;;;;;6.78;1.30;;;7.20;32.70;;;;;;5053767;28;20162;-49
2021/12/04 02:27:52;;;;;;;1.15;0.60;;;7.20;32.70;;;;;;5037347;28;20169;-49
2021/12/04 02:30:27;;;;;;;3.17;1.77;;;7.20;32.80;;;;;;5054636;28;20196;-49
2021/12/04 02:32:55;;;;;;;1.88;1.30;;;7.10;33.10;;;;;;5054615;28;20585;-49
2021/12/04 02:35:25;;;;;;;5.20;0.93;;;7.10;33.10;;;;;;5053691;28;20173;-49
2021/12/04 02:37:54;;;;;;;2.15;1.33;;;7.10;33.20;;;;;;5053617;28;20315;-49
2021/12/04 02:40:23;;;;;;;5.68;1.13;;;7.10;33.30;;;;;;5053408;28;20260;-49
2021/12/04 02:42:51;;;;;;;2.95;1.35;;;7.10;33.40;;;;;;5053724;28;20197;-49
2021/12/04 02:45:19;;;;;;;1.95;1.40;;;7.00;33.20;;;;;;5053594;28;20198;-49
2021/12/04 02:47:46;;;;;;;1.83;1.02;;;7.00;33.40;;;;;;5037155;28;20201;-49
2021/12/04 02:50:16;;;;;;;1.73;1.27;;;7.00;33.40;;;;;;5053560;28;20197;-49
2021/12/04 02:52:44;;;;;;;2.60;1.10;;;7.00;33.60;;;;;;5037337;28;20170;-49
2021/12/04 02:55:12;;;;;;;1.40;1.00;;;7.00;33.60;;;;;;5053510;28;20240;-49
2021/12/04 02:57:44;;;;;;;2.03;1.58;;;7.00;33.60;;;;;;5054352;28;20173;-49
2021/12/04 03:00:17;;;;;;;1.80;1.27;;;7.00;33.60;;;;;;5054169;28;20495;-49
2021/12/04 03:02:45;;;;;;;5.43;1.30;;;7.00;33.70;;;;;;5054356;28;20167;-49
2021/12/04 03:05:12;;;;;;;2.63;1.55;;;6.90;33.70;;;;;;5053423;28;20625;-49
2021/12/04 03:07:41;;;;;;;2.25;1.92;;;6.90;34.00;;;;;;5054186;28;20204;-49
2021/12/04 03:10:09;;;;;;;2.05;1.38;;;6.90;34.00;;;;;;5055967;28;20165;-49
2021/12/04 03:12:38;;;;;;;2.97;1.30;;;6.90;33.90;;;;;;5057207;28;20189;-49
2021/12/04 03:15:06;;;;;;;1.55;1.13;;;6.80;34.20;;;;;;5057101;28;20165;-49
2021/12/04 03:17:34;;;;;;;2.63;1.65;;;6.80;34.10;;;;;;5058037;28;20170;-49
2021/12/04 03:20:02;;;;;;;2.13;1.58;;;6.80;34.10;;;;;;5057911;28;20188;-49
2021/12/04 03:22:30;;;;;;;2.13;1.00;;;6.80;34.30;;;;;;5056961;28;20173;-49
2021/12/04 03:24:58;;;;;;;2.33;2.10;;;6.80;34.20;;;;;;5057907;28;20201;-49
2021/12/04 03:27:29;;;;;;;2.70;0.95;;;6.80;34.30;;;;;;5056817;28;20216;-49
2021/12/04 03:29:59;;;;;;;1.60;0.98;;;6.70;34.40;;;;;;5057848;28;20169;-49
2021/12/04 03:40:55;;;;;;;1.63;1.15;;;6.70;34.50;;;;;;5070940;28;20551;-49
2021/12/04 03:43:23;;;;;;;2.58;1.15;;;6.70;34.50;;;;;;5039925;28;20169;-49
2021/12/04 03:45:54;;;;;;;2.22;1.25;;;6.70;34.60;;;;;;5040105;28;20189;-49
2021/12/04 03:50:56;;;;;;;2.65;2.17;;;6.70;34.70;;;;;;5040865;28;20153;-49
2021/12/04 03:53:24;;;;;;;1.92;1.67;;;6.80;34.70;;;;;;5023804;28;20166;-49
2021/12/04 03:55:51;;;;;;;1.60;0.95;;;6.70;34.70;;;;;;5057305;28;20228;-49
2021/12/04 03:58:21;;;;;;;4.70;1.40;;;6.70;34.90;;;;;;5023473;28;20169;-49
2021/12/04 04:00:49;;;;;;;2.13;1.20;;;6.70;34.90;;;;;;5021471;28;20204;-49
2021/12/04 04:03:16;;;;;;;2.65;1.60;;;6.70;35.00;;;;;;5037191;28;20256;-49
2021/12/04 04:05:43;;;;;;;2.00;1.20;;;6.70;35.10;;;;;;5003744;28;20603;-49
2021/12/04 04:08:12;;;;;;;1.77;1.20;;;6.70;35.00;;;;;;5019680;28;20264;-49
2021/12/04 04:10:39;;;;;;;2.22;1.48;;;6.70;34.90;;;;;;5037230;28;20168;-49
2021/12/04 04:13:08;;;;;;;4.10;2.60;;;6.70;34.90;;;;;;5037067;28;20162;-49
2021/12/04 04:15:35;;;;;;;2.33;1.70;;;6.70;35.00;;;;;;5020069;28;20504;-49
2021/12/04 04:18:04;;;;;;;2.42;1.05;;;6.70;35.20;;;;;;5036978;28;20177;-49
2021/12/04 04:20:31;;;;;;;2.17;1.42;;;6.70;35.40;;;;;;5003779;28;20690;-49
2021/12/04 04:22:59;;;;;;;3.10;0.95;;;6.70;35.40;;;;;;5003184;28;20174;-49
2021/12/04 04:25:26;;;;;;;2.50;1.60;;;6.70;35.90;;;;;;5019484;28;20250;-49
2021/12/04 04:27:53;;;;;;;1.92;1.55;;;6.60;35.10;;;;;;5036731;28;20174;-49
2021/12/04 04:30:21;;;;;;;4.22;1.35;;;6.60;35.30;;;;;;5019464;28;20167;-49
2021/12/04 04:32:50;;;;;;;3.30;1.13;;;6.70;35.20;;;;;;5036651;28;20634;-49
2021/12/04 04:35:23;;;;;;;2.20;1.27;;;6.60;35.20;;;;;;5019666;28;20595;-49
2021/12/04 05:10:50;;;;;;;2.38;1.15;;;6.70;36.20;;;;;;5001247;28;20170;-49
2021/12/04 05:13:17;;;;;;;8.70;2.08;;;6.70;36.20;;;;;;5035724;28;20519;-49
2021/12/04 05:18:33;;;;;;;2.55;1.42;;;6.70;37.70;;;;;;5035756;28;20146;-49
2021/12/04 05:21:06;;;;;;;3.22;1.73;;;6.60;38.30;;;;;;5020934;28;20176;-49
2021/12/04 05:23:41;;;;;;;2.40;1.63;;;6.60;38.70;;;;;;5018901;28;20170;-49
2021/12/04 05:26:12;;;;;;;1.60;1.05;;;6.60;39.00;;;;;;5018108;28;20252;-49
2021/12/04 05:28:39;;;;;;;1.10;0.47;;;6.50;39.50;;;;;;5035688;28;20162;-49
2021/12/04 05:31:07;;;;;;;1.30;0.70;;;6.50;39.50;;;;;;5018666;28;20170;-49
2021/12/04 05:33:36;;;;;;;3.25;1.65;;;6.50;40.40;;;;;;5018092;28;20170;-49
2021/12/04 05:36:04;;;;;;;2.70;1.02;;;6.40;41.00;;;;;;5035537;28;20611;-49
2021/12/04 05:38:31;;;;;;;1.65;0.88;;;6.30;40.90;;;;;;5052348;28;20185;-49
2021/12/04 05:40:59;;;;;;;2.20;2.00;;;6.30;41.50;;;;;;5051007;28;20714;-49
2021/12/04 05:43:26;;;;;;;1.75;0.98;;;6.20;42.30;;;;;;5058063;28;20199;-49
2021/12/04 05:46:16;;;;;;;1.70;1.02;;;6.10;43.10;;;;;;5074260;28;20195;-49
2021/12/04 05:49:01;;;;;;;2.95;1.20;;;6.10;43.10;;;;;;5074267;28;20259;-49
2021/12/04 05:51:37;;;;;;;3.05;1.60;;;6.00;43.60;;;;;;5045848;28;20171;-49
2021/12/04 05:54:18;;;;;;;2.97;1.77;;;5.90;44.70;;;;;;5074190;28;20532;-49
2021/12/04 05:56:46;;;;;;;3.33;1.35;;;5.90;44.40;;;;;;5075201;28;20160;-49
2021/12/04 05:59:13;;;;;;;1.50;0.88;;;5.80;44.40;;;;;;5073117;28;20173;-49
2021/12/04 06:01:41;;;;;;;3.38;1.65;;;5.70;44.80;;;;;;5054144;28;20165;-49
2021/12/04 06:04:09;;;;;;;2.45;1.42;;;5.70;45.20;;;;;;5054887;28;20200;-49
2021/12/04 06:06:36;;;;;;;1.33;0.80;;;5.70;45.40;;;;;;5054880;28;20811;-49
2021/12/04 06:09:05;;;;;;;2.03;1.10;;;5.60;46.00;;;;;;5054141;28;20640;-49
2021/12/04 06:11:34;;;;;;;2.38;1.08;;;5.60;45.50;;;;;;5053998;28;20157;-49
2021/12/04 06:14:02;;;;;;;3.25;1.02;;;5.60;45.60;;;;;;5054050;28;20181;-49
2021/12/04 06:16:30;;;;;;;2.67;1.35;;;5.70;45.70;;;;;;5053934;28;20172;-49
2021/12/04 06:19:05;;;;;;;1.88;0.95;;;5.70;46.40;;;;;;5037508;28;20693;-49
2021/12/04 06:24:18;;;;;;;2.05;1.30;;;5.60;46.60;;;;;;5054799;28;20660;-49
2021/12/04 06:26:46;;;;;;;2.78;1.83;;;5.50;46.90;;;;;;5053571;28;20538;-49
2021/12/04 06:29:13;;;;;;;1.58;1.00;;;5.50;46.40;;;;;;5053717;28;20173;-49
2021/12/04 06:31:41;;;;;;;2.35;0.68;;;5.50;46.60;;;;;;5053776;28;20605;-49
2021/12/04 06:34:08;;;;;;;1.95;1.10;;;5.50;46.80;;;;;;5053853;28;20170;-49
2021/12/04 06:36:37;;;;;;;1.40;0.40;;;5.50;47.10;;;;;;5054967;28;20162;-49
2021/12/04 06:39:05;;;;;;;2.67;1.70;;;5.50;47.00;;;;;;5037402;28;20195;-49
2021/12/04 06:41:32;;;;;;;2.75;1.20;;;5.50;47.10;;;;;;5041594;28;20271;-49
2021/12/04 06:44:00;;;;;;;3.13;0.80;;;5.50;47.00;;;;;;5017863;28;20178;-49
2021/12/04 06:46:28;;;;;;;2.28;1.90;;;5.40;47.40;;;;;;5038329;28;20185;-49
2021/12/04 06:51:33;;;;;;;1.20;0.80;;;5.40;47.20;;;;;;5005168;28;20169;-49
2021/12/04 06:54:12;;;;;;;2.38;1.50;;;5.40;47.90;;;;;;5015173;28;20173;-49
2021/12/04 06:56:42;;;;;;;6.10;2.47;;;5.40;47.30;;;;;;4994433;28;20247;-49
2021/12/04 06:59:13;;;;;;;2.83;1.27;;;5.40;47.30;;;;;;5041344;28;20184;-49
2021/12/04 07:01:42;;;;;;;3.95;1.35;;;5.40;46.90;;;;;;5058248;28;20247;-49
2021/12/04 07:04:09;;;;;;;2.00;1.13;;;5.40;47.20;;;;;;5041028;28;20169;-49
2021/12/04 07:06:37;;;;;;;1.52;1.30;;;5.40;46.70;;;;;;5040478;28;20193;-49
2021/12/04 07:09:06;;;;;;;1.13;0.73;;;5.50;47.50;;;;;;5040965;28;20165;-49
2021/12/04 07:11:34;;;;;;;3.38;2.20;;;5.50;47.20;;;;;;5058067;28;20613;-49
2021/12/04 07:14:02;;;;;;;4.32;1.92;;;5.50;46.80;;;;;;5040599;28;20192;-49
2021/12/04 07:16:30;;;;;;;1.35;0.80;;;5.50;46.80;;;;;;5024483;28;20166;-49
2021/12/04 07:18:57;;;;;;;1.00;0.40;;;5.50;46.60;;;;;;5024170;28;20258;-49
2021/12/04 07:21:25;;;;;;;2.75;0.82;;;5.50;47.00;;;;;;5057894;28;20162;-49
2021/12/04 07:23:52;;;;;;;1.55;1.25;;;5.50;47.30;;;;;;5057851;28;20170;-49
2021/12/04 07:26:20;;;;;;;1.20;0.70;;;5.40;47.40;;;;;;5040354;28;20264;-49
2021/12/04 07:28:47;;;;;;;4.03;1.23;;;5.40;47.80;;;;;;5057880;28;20183;-49
2021/12/04 07:31:15;;;;;;;1.67;1.55;;;5.30;47.90;;;;;;5057770;28;20189;-49
2021/12/04 07:33:43;;;;;;;1.63;1.00;;;5.20;47.80;;;;;;5057698;28;20166;-49
2021/12/04 07:36:10;;;;;;;2.13;0.95;;;5.30;47.60;;;;;;5042258;28;20182;-49
2021/12/04 07:38:38;;;;;;;5.90;1.90;;;5.30;47.70;;;;;;5020461;28;20174;-49
2021/12/04 07:41:05;;;;;;;1.85;1.40;;;5.30;48.00;;;;;;5045938;28;20267;-49
2021/12/04 07:43:32;;;;;;;1.80;1.45;;;5.30;48.00;;;;;;5056293;28;20602;-49
2021/12/04 07:45:59;;;;;;;1.48;0.90;;;5.20;48.00;;;;;;5056196;28;20228;-49
2021/12/04 07:48:27;;;;;;;3.00;1.10;;;5.20;48.20;;;;;;5056302;28;20216;-49
2021/12/04 07:50:55;;;;;;;2.00;0.98;;;5.20;48.10;;;;;;5055316;28;20172;-49
2021/12/04 07:53:23;;;;;;;1.20;0.70;;;5.20;48.30;;;;;;5055287;28;20169;-49
2021/12/04 07:55:50;;;;;;;1.30;0.98;;;5.20;48.00;;;;;;5054920;28;20153;-49
2021/12/04 07:58:17;;;;;;;1.25;0.73;;;5.20;47.80;;;;;;5056172;28;20157;-49
2021/12/04 08:00:45;;;;;;;1.30;0.80;;;5.30;47.30;;;;;;5055248;28;20712;-49
2021/12/04 08:03:13;;;;;;;2.85;1.88;;;5.30;47.50;;;;;;5055979;28;20166;-49
2021/12/04 08:05:41;;;;;;;1.20;0.80;;;5.30;47.40;;;;;;5055012;28;20176;-49
2021/12/04 08:08:08;;;;;;;1.20;0.93;;;5.30;47.30;;;;;;5055015;28;20157;-49
2021/12/04 08:10:36;;;;;;;1.30;0.88;;;5.30;46.90;;;;;;5055919;28;20193;-49
2021/12/04 08:13:04;;;;;;;1.00;0.50;;;5.30;47.30;;;;;;5055835;28;20161;-49
2021/12/04 08:15:33;;;;;;;1.20;0.60;;;5.40;47.00;;;;;;5055002;28;20681;-49
2021/12/04 08:18:01;;;;;;;2.10;1.05;;;5.40;46.70;;;;;;5045864;28;20242;-49
2021/12/04 08:20:28;;;;;;;3.55;1.00;;;5.40;47.10;;;;;;5075849;28;20161;-49
2021/12/04 08:22:55;;;;;;;1.55;1.23;;;5.40;47.20;;;;;;5074911;28;20161;-49
2021/12/04 08:25:24;;;;;;;1.85;1.52;;;5.30;47.30;;;;;;5041803;28;20168;-49
2021/12/04 08:27:52;;;;;;;11.60;2.42;;;5.30;47.30;;;;;;5074712;28;20243;-49
2021/12/04 08:30:24;;;;;;;2.55;1.13;;;5.30;47.10;;;;;;5075670;28;20172;-49
2021/12/04 08:32:53;;;;;;;5.00;2.63;;;5.40;47.00;;;;;;5074776;28;20167;-49
2021/12/04 08:35:23;;;;;;;1.73;1.40;;;5.30;47.00;;;;;;5075503;28;20199;-49
2021/12/04 08:37:58;;;;;;;2.85;2.25;;;5.30;47.30;;;;;;5074695;28;20373;-49
2021/12/04 08:40:28;;;;;;;1.73;0.80;;;5.30;46.90;;;;;;4957423;28;2808409;-49
2021/12/04 08:42:56;;;;;;;3.00;1.27;;;5.30;47.00;;;;;;5056341;28;20169;-49
2021/12/04 08:45:24;;;;;;;1.52;1.13;;;5.40;47.30;;;;;;5056343;28;20172;-49
2021/12/04 08:47:52;;;;;;;2.28;1.73;;;5.30;47.20;;;;;;5056273;28;20196;-49
2021/12/04 08:50:25;;;;;;;1.35;0.70;;;5.30;47.40;;;;;;5056324;28;20166;-49
2021/12/04 08:52:54;;;;;;;2.55;1.83;;;5.40;47.20;;;;;;5038897;28;20496;-49
2021/12/04 08:55:23;;;;;;;1.98;0.80;;;5.40;47.10;;;;;;5038911;28;20511;-49
2021/12/04 08:57:50;;;;;;;1.25;0.90;;;5.40;46.90;;;;;;5022483;28;20238;-49
2021/12/04 09:00:30;;;;;;;2.75;1.13;;;5.50;46.70;;;;;;5038824;28;20510;-49
2021/12/04 09:02:59;;;;;;;1.25;0.70;;;5.50;46.90;;;;;;5039802;28;20165;-49
2021/12/04 09:05:26;;;;;;;1.30;0.88;;;5.50;46.90;;;;;;5038374;28;20165;-49
2021/12/04 09:07:54;;;;;;;1.65;1.17;;;5.50;46.80;;;;;;5055111;28;20201;-49
2021/12/04 09:10:22;;;;;;;1.75;1.60;;;5.50;47.00;;;;;;5038716;28;20164;-49
2021/12/04 09:12:50;;;;;;;2.95;1.38;;;5.60;47.00;;;;;;5038477;28;20162;-49
2021/12/04 09:15:25;;;;;;;3.00;1.58;;;5.60;46.80;;;;;;5055803;28;20165;-49
2021/12/04 09:17:52;;;;;;;1.20;0.98;;;5.60;46.50;;;;;;5039137;28;20165;-49
2021/12/04 09:20:20;;;;;;;1.45;1.13;;;5.60;46.40;;;;;;5038434;28;20594;-49
2021/12/04 09:22:50;;;;;;;2.25;1.38;;;5.70;46.10;;;;;;5038318;28;20196;-48
2021/12/04 09:25:23;;;;;;;2.15;0.73;;;5.80;46.10;;;;;;5005321;28;20191;-49
2021/12/04 09:30:54;;;;;;;2.13;0.85;;;5.70;46.30;;;;;;5041283;28;20150;-49
2021/12/04 10:22:17;;;;;;;1.52;1.15;;;6.10;46.60;;;;;;5038111;28;20154;-49
2021/12/04 10:33:19;;;;;;;2.05;0.93;;;6.20;46.30;;;;;;5040117;28;20551;-49
2021/12/04 10:35:50;;;;;;;2.65;0.80;;;6.30;46.30;;;;;;5005135;28;20167;-48
2021/12/04 10:38:23;;;;;;;5.45;2.38;;;6.30;45.90;;;;;;5054661;28;20664;-48
2021/12/04 10:40:52;;;;;;;1.30;0.88;;;6.40;45.80;;;;;;5054246;28;20277;-49
2021/12/04 10:43:30;;;;;;;1.10;0.55;;;6.40;45.50;;;;;;5020933;28;20166;-49
2021/12/04 10:46:03;;;;;;;2.72;1.75;;;6.40;45.40;;;;;;5054422;28;20149;-49
2021/12/04 10:48:33;;;;;;;1.20;0.80;;;6.40;45.40;;;;;;5037513;28;20229;-49
2021/12/04 10:51:30;;;;;;;2.58;0.63;;;6.50;45.40;;;;;;5021140;28;20250;-49
2021/12/04 10:53:55;;;;;;;2.60;1.27;;;6.50;45.30;;;;;;5039580;28;20234;-48
2021/12/04 10:56:35;;;;;;;1.13;0.50;;;6.60;45.00;;;;;;5054283;28;20315;-48
2021/12/04 11:02:18;;;;;;;2.65;0.80;;;6.70;44.60;;;;;;5012888;28;20166;-49
2021/12/04 11:04:52;;;;;;;1.80;1.20;;;6.70;44.40;;;;;;5012896;28;20178;-49
2021/12/04 11:24:37;;;;;;;2.50;0.80;;;6.80;43.00;;;;;;5012740;28;20190;-48
2021/12/04 11:40:31;;;;;;;1.92;1.73;;;6.70;43.70;;;;;;5040620;28;20252;-49
2021/12/04 11:43:04;;;;;;;1.65;1.00;;;6.60;43.60;;;;;;5039824;28;20238;-48
2021/12/04 11:48:33;;;;;;;1.48;0.90;;;6.80;43.80;;;;;;5057555;28;20239;-48
2021/12/04 11:51:02;;;;;;;3.55;3.25;;;6.80;43.50;;;;;;5023994;28;20149;-48
2021/12/04 11:53:33;;;;;;;2.03;0.95;;;6.80;43.80;;;;;;5023776;28;20169;-48
2021/12/04 11:56:01;;;;;;;2.03;0.60;;;6.80;43.80;;;;;;5023329;28;20250;-49
2021/12/04 11:58:32;;;;;;;1.10;0.50;;;6.80;43.60;;;;;;5057218;28;20201;-48
2021/12/04 12:01:02;;;;;;;1.45;0.82;;;6.80;44.10;;;;;;5057247;28;20181;-48
2021/12/04 12:03:32;;;;;;;2.78;1.52;;;6.80;43.60;;;;;;5023137;28;20161;-49
2021/12/04 12:06:03;;;;;;;1.38;0.77;;;6.90;43.90;;;;;;5039648;28;20157;-48
2021/12/04 12:08:42;;;;;;;2.13;1.15;;;7.00;43.70;;;;;;5057217;28;20492;-48
2021/12/04 12:11:28;;;;;;;8.05;2.25;;;7.20;43.60;;;;;;5057098;28;20146;-49
2021/12/04 12:14:10;;;;;;;1.85;1.20;;;7.30;43.40;;;;;;5057022;28;20161;-49
2021/12/04 12:16:47;;;;;;;1.52;0.90;;;7.70;42.10;;;;;;5039774;28;20234;-49
2021/12/04 12:19:29;;;;;;;3.38;1.48;;;8.40;40.80;;;;;;5039567;28;20158;-49
2021/12/04 12:22:05;;;;;;;3.78;1.92;;;8.50;40.40;;;;;;5040487;28;20173;-49
2021/12/04 12:27:36;;;;;;;2.35;1.10;;;8.50;39.40;;;;;;5056965;28;20183;-48
2021/12/04 12:33:56;;;;;;;2.63;2.00;;;7.90;39.70;;;;;;5056895;28;20166;-49
2021/12/04 12:36:29;;;;;;;2.13;1.27;;;7.70;40.30;;;;;;5038823;28;20165;-49
2021/12/04 12:39:14;;;;;;;3.40;1.52;;;7.50;41.00;;;;;;5038917;28;20242;-49
2021/12/04 12:41:49;;;;;;;2.08;1.00;;;7.40;40.70;;;;;;5061225;28;20755;-49
2021/12/04 12:44:29;;;;;;;3.40;1.95;;;7.40;41.40;;;;;;5058874;28;20169;-49
2021/12/04 12:47:04;;;;;;;1.55;0.93;;;7.30;41.70;;;;;;5076338;28;20563;-49
2021/12/04 12:49:40;;;;;;;2.45;1.50;;;7.30;41.80;;;;;;5075590;28;20171;-49
2021/12/04 12:52:26;;;;;;;3.92;2.55;;;7.30;41.50;;;;;;5075418;28;20180;-49
2021/12/04 12:54:59;;;;;;;2.65;1.13;;;7.30;41.70;;;;;;5075334;28;20177;-49
2021/12/04 12:57:35;;;;;;;2.50;2.08;;;7.30;42.10;;;;;;5075342;28;20170;-49
2021/12/04 13:14:32;;;;;;;4.03;2.03;;;8.00;41.40;;;;;;5075714;28;20172;-49
2021/12/04 13:17:16;;;;;;;2.95;1.45;;;8.20;40.80;;;;;;5074827;28;20218;-49
2021/12/04 13:19:48;;;;;;;2.97;1.40;;;8.20;40.10;;;;;;5075846;28;20527;-49
2021/12/04 13:22:25;;;;;;;3.45;2.30;;;8.40;40.30;;;;;;5075565;28;20171;-49
2021/12/04 13:24:54;;;;;;;8.57;1.10;;;8.60;39.50;;;;;;5074836;28;20608;-49
2021/12/04 13:29:53;;;;;;;2.88;2.17;;;8.70;39.00;;;;;;5074631;28;20171;-49
2021/12/04 13:32:37;;;;;;;2.88;1.77;;;8.70;39.10;;;;;;5074615;28;20218;-49
2021/12/04 13:35:22;;;;;;;1.83;1.38;;;8.70;39.10;;;;;;5058967;28;20145;-49
2021/12/04 13:38:01;;;;;;;3.45;3.00;;;8.60;39.10;;;;;;5075350;28;20180;-49
2021/12/04 13:40:29;;;;;;;4.70;2.25;;;8.60;39.00;;;;;;5071705;28;20640;-49
2021/12/04 13:42:57;;;;;;;4.63;1.90;;;8.50;39.20;;;;;;5038014;28;20169;-49
2021/12/04 13:45:25;;;;;;;3.72;2.63;;;8.30;39.40;;;;;;5055182;28;20178;-49
2021/12/04 13:47:56;;;;;;;1.95;1.48;;;8.20;39.50;;;;;;5004983;28;20201;-49
2021/12/04 13:53:14;;;;;;;2.90;2.10;;;7.90;39.90;;;;;;5037877;28;20190;-49
2021/12/04 13:55:48;;;;;;;3.78;1.95;;;7.80;40.20;;;;;;5055062;28;20602;-49
2021/12/04 13:58:16;;;;;;;2.97;1.50;;;7.70;41.10;;;;;;5055089;28;20166;-49
2021/12/04 14:00:44;;;;;;;2.10;1.23;;;7.60;40.70;;;;;;5054364;28;20193;-49
2021/12/04 14:03:12;;;;;;;8.75;3.30;;;7.50;40.90;;;;;;5001843;28;20165;-49
2021/12/04 14:05:40;;;;;;;1.95;1.70;;;7.50;41.20;;;;;;5001722;28;20179;-49
2021/12/04 14:08:10;;;;;;;2.60;1.35;;;7.40;41.10;;;;;;5017659;28;20194;-49
2021/12/04 14:10:43;;;;;;;2.15;1.63;;;7.30;41.30;;;;;;5035110;28;20166;-48
2021/12/04 14:13:14;;;;;;;4.93;2.20;;;7.20;42.10;;;;;;5035065;28;20166;-48
2021/12/04 14:15:44;;;;;;;2.25;1.70;;;7.10;41.50;;;;;;5035182;28;20634;-49
2021/12/04 14:18:21;;;;;;;3.72;1.25;;;7.10;41.70;;;;;;5002359;28;20197;-49
2021/12/04 14:20:52;;;;;;;6.53;2.55;;;7.00;41.70;;;;;;5034671;28;20188;-49
2021/12/04 14:23:22;;;;;;;2.58;1.50;;;7.00;41.80;;;;;;5017542;28;20464;-49
2021/12/04 14:25:54;;;;;;;2.72;2.05;;;6.90;42.10;;;;;;5034638;28;20177;-48
2021/12/04 14:28:34;;;;;;;3.85;2.40;;;6.80;42.10;;;;;;5018349;28;20185;-49
2021/12/04 14:31:02;;;;;;;3.95;1.52;;;6.90;42.00;;;;;;5001637;28;20154;-49
2021/12/04 14:33:30;;;;;;;1.65;1.55;;;6.70;42.30;;;;;;5000969;28;20174;-49
2021/12/04 14:35:58;;;;;;;3.25;1.50;;;6.70;42.40;;;;;;5034677;28;20165;-49
2021/12/04 14:38:28;;;;;;;2.28;1.67;;;6.60;42.50;;;;;;5017380;28;20599;-48
2021/12/04 14:41:04;;;;;;;1.73;0.95;;;6.60;42.50;;;;;;5027728;28;20504;-49
2021/12/04 14:43:35;;;;;;;8.43;2.45;;;6.60;42.70;;;;;;5053748;28;20175;-48
2021/12/04 14:46:10;;;;;;;3.70;1.35;;;6.50;43.00;;;;;;5053314;28;20166;-49
2021/12/04 14:48:43;;;;;;;6.95;2.25;;;6.50;43.20;;;;;;5053718;28;20176;-48
2021/12/04 14:51:23;;;;;;;2.72;1.15;;;6.40;43.20;;;;;;5054327;28;20157;-49
2021/12/04 14:53:56;;;;;;;3.22;1.88;;;6.30;43.30;;;;;;5053580;28;20228;-48
2021/12/04 14:56:27;;;;;;;3.10;2.00;;;6.30;43.50;;;;;;5037757;28;20176;-49
2021/12/04 14:58:54;;;;;;;3.28;1.30;;;6.20;43.60;;;;;;5054452;28;20170;-48
2021/12/04 15:01:26;;;;;;;2.50;1.35;;;6.20;43.80;;;;;;5054380;28;20166;-49
2021/12/04 15:03:59;;;;;;;2.55;2.35;;;6.20;43.80;;;;;;5054227;28;20175;-49
2021/12/04 15:06:28;;;;;;;2.83;1.83;;;6.10;44.20;;;;;;5040509;28;20634;-49
2021/12/04 15:09:10;;;;;;;2.85;1.70;;;6.00;44.40;;;;;;5057372;28;20189;-48
2021/12/04 15:11:40;;;;;;;2.42;2.22;;;6.00;44.10;;;;;;5042181;28;20162;-48
2021/12/04 15:14:31;;;;;;;2.72;1.85;;;6.00;44.20;;;;;;5057033;28;20273;-49
2021/12/04 15:17:06;;;;;;;1.40;1.02;;;5.90;44.50;;;;;;5041954;28;20173;-48
2021/12/04 15:19:46;;;;;;;2.47;1.95;;;5.90;44.40;;;;;;5056917;28;20561;-48
2021/12/04 15:22:22;;;;;;;2.22;1.50;;;5.90;44.40;;;;;;5057991;28;20218;-49
2021/12/04 15:24:51;;;;;;;4.25;3.17;;;5.90;44.70;;;;;;5041374;28;20166;-49
2021/12/04 15:27:23;;;;;;;5.18;2.47;;;5.90;44.50;;;;;;5056988;28;20200;-49
2021/12/04 15:29:53;;;;;;;2.03;1.83;;;5.90;44.80;;;;;;5057657;28;20248;-49
2021/12/04 15:32:24;;;;;;;1.90;1.70;;;5.90;44.70;;;;;;5040978;28;20169;-49
2021/12/04 15:35:01;;;;;;;3.78;1.63;;;5.80;44.70;;;;;;5057713;28;20360;-49
2021/12/04 15:37:41;;;;;;;2.85;1.95;;;5.80;44.80;;;;;;5056777;28;20173;-48
2021/12/04 15:40:48;;;;;;;3.00;1.63;;;5.70;45.20;;;;;;5040496;28;20248;-49
2021/12/04 15:54:14;;;;;;;3.55;3.22;;;5.70;45.60;;;;;;5023026;28;20177;-49
2021/12/04 15:56:48;;;;;;;2.00;1.20;;;5.60;45.30;;;;;;5037473;28;20208;-49
2021/12/04 15:59:19;;;;;;;4.53;1.70;;;5.70;45.30;;;;;;5037216;28;20170;-48
2021/12/04 16:01:50;;;;;;;1.70;1.10;;;5.70;45.40;;;;;;5020116;28;20672;-49
2021/12/04 16:04:38;;;;;;;4.65;1.77;;;5.70;45.60;;;;;;5020054;28;20170;-48
2021/12/04 16:07:07;;;;;;;2.55;1.48;;;5.80;45.20;;;;;;5037256;28;20201;-49
2021/12/04 16:09:37;;;;;;;1.90;0.98;;;5.80;45.20;;;;;;5037171;28;20201;-49
2021/12/04 16:12:13;;;;;;;5.78;1.67;;;5.80;45.10;;;;;;5020175;28;20166;-49
2021/12/04 16:14:44;;;;;;;7.03;2.40;;;5.80;45.20;;;;;;5027994;28;20165;-49
2021/12/04 16:17:13;;;;;;;2.40;1.85;;;5.80;45.20;;;;;;5039178;28;20192;-49
2021/12/04 16:19:50;;;;;;;1.42;0.93;;;5.80;45.00;;;;;;5057077;28;20169;-49
2021/12/04 16:22:18;;;;;;;1.10;0.50;;;5.90;45.40;;;;;;5040863;28;20230;-49
2021/12/04 16:24:49;;;;;;;2.83;1.23;;;5.80;45.30;;;;;;5035570;28;20257;-49
2021/12/04 16:27:28;;;;;;;3.38;2.83;;;5.80;45.20;;;;;;5004050;28;20277;-50
2021/12/04 16:30:25;;;;;;;1.77;1.30;;;5.80;45.40;;;;;;5035881;28;20165;-49
2021/12/04 16:33:00;;;;;;;3.50;1.65;;;5.90;45.30;;;;;;5036700;28;20261;-49
2021/12/04 16:38:12;;;;;;;4.25;3.08;;;5.90;45.20;;;;;;5036664;28;20173;-49